Weather Top, Arizona (BMGR) Weather observations

Data are for 10 minute period ending at time listed.
 Day   Time   Solar   Ave.   Ave.  Ave.  Vector  Max.   Total    
  of    of     Rad.   Air    Rel.  Wind   Wind   Wind  Precip.   
Year   Day            Temp.  Hum.  Speed  Dir.   Gust            
2026   (MST)  Kw/m2    F      %     mph   deg.    mph    in.     
-----------------------------------------------------------------
 242    6:35   0.05   80.4    53   14.1   124    25.0    0.00 
 242    6:40   0.07   80.3    54   13.3   130    22.8    0.00 
 242    6:45   0.08   80.3    54   12.9   123    21.1    0.00 
 242    6:50   0.09   80.4    54   12.4   127    20.0    0.00 
 242    6:55   0.11   80.4    54   14.7   129    22.2    0.00 
 242    7:00   0.12   80.6    54   13.8   127    19.4    0.00 
 242    7:05   0.14   80.9    53   13.3   125    20.0    0.00 
 242    7:10   0.15   81.1    52   11.0   131    18.3    0.00 
 242    7:15   0.17   81.3    51   12.5   128    20.0    0.00 
 242    7:20   0.18   81.6    50   12.7   125    21.1    0.00 
 242    7:25   0.20   81.5    49   13.1   124    20.0    0.00 
 242    7:30   0.22   81.8    48   13.5   126    19.4    0.00 
 242    7:35   0.23   82.1    47   11.8   127    17.2    0.00 
 242    7:40   0.25   82.2    47   11.5   131    17.7    0.00 
 242    7:45   0.27   82.6    46   11.1   133    17.2    0.00 
 242    7:50   0.28   83.0    46    9.9   131    16.6    0.00 
 242    7:55   0.30   83.2    46   11.2   126    18.9    0.00 
 242    8:00   0.32   83.6    45   11.2   123    17.7    0.00 
 242    8:05   0.33   83.6    45   12.2   123    21.1    0.00 
 242    8:10   0.35   83.4    45   13.3   120    20.5    0.00 
 242    8:15   0.37   83.8    45   12.0   124    18.3    0.00 
 242    8:20   0.39   83.9    44   12.0   120    19.4    0.00 
 242    8:25   0.40   84.0    44   11.7   117    17.7    0.00 
 242    8:30   0.42   84.2    43   10.3   119    16.0    0.00 
 242    8:35   0.43   84.5    43    9.9   130    15.5    0.00 
 242    8:40   0.45   85.1    42    9.7   133    14.4    0.00 
 242    8:45   0.46   85.3    42    9.4   134    15.5    0.00 
 242    8:50   0.48   85.6    41   10.2   157    18.9    0.00 
 242    8:55   0.50   86.4    41    9.5   172    14.4    0.00 
 242    9:00   0.51   86.4    41    8.9   182    16.0    0.00 
 242    9:05   0.53   86.9    40    6.8   189    12.7    0.00 
 242    9:10   0.54   87.2    40    5.0   204     9.9    0.00 
 242    9:15   0.55   87.4    41    6.3   184    11.0    0.00 
 242    9:20   0.57   87.7    41    5.0   192     9.9    0.00 
 242    9:25   0.58   87.3    41    7.5   207    12.1    0.00 
 242    9:30   0.59   86.3    42    7.9   209    13.3    0.00 
 242    9:35   0.60   87.1    41    5.8   194     9.9    0.00 
 242    9:40   0.62   87.4    41    4.9   205     8.8    0.00 
 242    9:45   0.63   88.0    40    6.0   190    10.5    0.00 
 242    9:50   0.64   88.1    40    7.6   183    12.7    0.00 
 242    9:55   0.66   87.5    41    6.3   212    10.5    0.00 
 242   10:00   0.67   88.5    40    6.8   177    10.5    0.00 
 242   10:05   0.68   88.1    41    8.1   218    12.7    0.00 
 242   10:10   0.70   88.2    41    6.0   199    13.8    0.00 
 242   10:15   0.71   89.0    40    6.4   197    12.1    0.00 
 242   10:20   0.72   89.3    39    9.2   193    13.8    0.00 
 242   10:25   0.73   88.6    40    8.4   209    14.9    0.00 
 242   10:30   0.74   88.3    40    9.1   232    17.2    0.00 
 242   10:35   0.75   89.0    40    7.0   210    13.3    0.00 
 242   10:40   0.76   89.8    39    7.8   209    14.4    0.00 
 242   10:45   0.77   89.4    39    7.4   225    15.5    0.00 
 242   10:50   0.77   89.6    39    6.8   222    12.1    0.00 
 242   10:55   0.78   90.6    38    6.7   214    12.7    0.00 
 242   11:00   0.79   89.9    39    6.3   230    11.0    0.00 
 242   11:05   0.79   90.7    38    6.9   230    12.1    0.00 
 242   11:10   0.80   90.2    39    4.2   230     9.9    0.00 
 242   11:15   0.81   91.6    37    7.7   191    14.9    0.00 
 242   11:20   0.81   92.1    37    5.7   211     9.9    0.00 
 242   11:25   0.82   92.0    37    5.9   165    11.0    0.00 
 242   11:30   0.83   93.1    36    5.9   175    12.1    0.00 
 242   11:35   0.83   93.8    35    6.4   191    12.1    0.00 
 242   11:40   0.84   95.1    34    7.2   172    11.6    0.00 
 242   11:45   0.84   94.3    34    6.0   166    11.0    0.00 
 242   11:50   0.84   93.7    34    6.8   203    14.4    0.00 
 242   11:55   0.85   93.7    34    6.4   239    13.3    0.00 
 242   12:00   0.85   94.0    34    4.7   228    12.7    0.00 
 242   12:05   0.85   93.0    35    7.6   235    15.5    0.00 
 242   12:10   0.85   94.6    33    4.6   188     8.8    0.00 
 242   12:15   0.86   95.0    32    9.2   199    16.0    0.00 
 242   12:20   0.86   93.8    33    5.2   226     9.9    0.00 
 242   12:25   0.86   93.8    33    5.8   172    11.0    0.00 
 242   12:30   0.86   94.0    33    5.6   160     9.9    0.00 
 242   12:35   0.86   95.9    31    7.9   212    13.8    0.00 
 242   12:40   0.87   95.0    32    6.4   227    11.6    0.00 
 242   12:45   0.87   95.0    32    5.4   163    10.5    0.00 
 242   12:50   0.86   94.4    33    4.6   188     9.3    0.00 
 242   12:55   0.86   94.6    32    3.4   226     6.5    0.00 
 242   13:00   0.86   97.1    30    5.3   187    11.0    0.00 
 242   13:05   0.86   97.1    30    7.3   183    15.5    0.00 
 242   13:10   0.85   95.1    32    3.8   190    10.5    0.00 
 242   13:15   0.85   94.8    33    2.2   195     7.7    0.00 
 242   13:20   0.84   97.6    30    6.2   183    13.8    0.00 
 242   13:25   0.86   96.1    31    6.2   203    10.5    0.00 
 242   13:30   0.88   96.4    30    5.8   267    13.8    0.00 
 242   13:35   0.86   96.2    31    6.2   229    13.8    0.00 
 242   13:40   0.84   96.3    30    4.3   236    12.1    0.00 
 242   13:45   0.70   96.2    30    4.7   229     8.8    0.00 
 242   13:50   0.73   97.1    30    4.2   174     8.2    0.00 
 242   13:55   0.78   97.4    29    3.1   261     8.2    0.00 
 242   14:00   0.81   98.5    28    4.4   180     8.2    0.00 
 242   14:05   0.81  101.2    26    5.6   185    16.0    0.00 
 242   14:10   0.79  100.8    26    4.1    64     7.7    0.00 
 242   14:15   0.79   98.7    28    6.5   225    12.7    0.00 
 242   14:20   0.79   97.2    28    3.9   125     7.7    0.00 
 242   14:25   0.78   99.6    26    6.4    71    11.6    0.00 
 242   14:30   0.77   99.5    27    6.0   198    11.0    0.00 
 242   14:35   0.76   98.1    28    6.5   244    11.6    0.00 
 242   14:40   0.75   95.4    29    4.4   288     9.3    0.00 
 242   14:45   0.74   97.6    28    3.4   189     8.2    0.00 
 242   14:50   0.73   99.4    27    7.3   192    12.1    0.00 
 242   14:55   0.73   98.2    28    7.3   178    14.4    0.00 
 242   15:00   0.72   98.7    27    7.6   219    13.3    0.00 
 242   15:05   0.71  100.1    26    5.9   180    10.5    0.00 
 242   15:10   0.51   99.2    27    5.2   250     9.9    0.00 
 242   15:15   0.71   98.0    28    3.9    93     7.1    0.00 
 242   15:20   0.69   99.3    27    3.3   259     6.0    0.00 
 242   15:25   0.69   99.4    27    5.2    39     9.3    0.00 
 242   15:30   0.69  102.1    25    4.3   163     8.2    0.00 
 242   15:35   0.67  101.3    25    3.6   134     6.5    0.00 
 242   15:40   0.64  100.6    26    6.3   180    12.7    0.00 
 242   15:45   0.62  101.4    25    5.2    74    12.1    0.00 
 242   15:50   0.48  101.7    25    6.5   164    13.3    0.00 
 242   15:55   0.58  101.0    25    4.5   204     9.9    0.00 
 242   16:00   0.46   98.1    27    4.4   268    10.5    0.00 
 242   16:05   0.56   98.6    27    2.7   238     9.3    0.00 
 242   16:10   0.54  100.4    26    4.5   115     8.8    0.00 
 242   16:15   0.52  101.8    25    5.1   117     9.9    0.00 
 242   16:20   0.50  103.0    24    3.8   187     8.8    0.00 
 242   16:25   0.48  100.5    25    5.7   257    12.7    0.00 
 242   16:30   0.47   99.1    26    5.4   318     9.3    0.00 
 242   16:35   0.45   98.9    26    4.6    32    10.5    0.00 
 242   16:40   0.43   99.8    26    4.9    85     8.8    0.00 
 242   16:45   0.43   99.4    26    4.3    48     8.8    0.00 
 242   16:50   0.42   99.0    26    5.6    19     9.9    0.00 
 242   16:55   0.40   99.3    26    4.8    94    10.5    0.00 
 242   17:00   0.40   99.2    26    4.3    41     9.9    0.00 
 242   17:05   0.38  100.0    26    4.3   166     8.2    0.00 
 242   17:10   0.36  100.2    26    4.1   239     9.9    0.00 
 242   17:15   0.33   99.0    27    4.7    83     8.8    0.00 
 242   17:20   0.10   98.2    27    6.2    99    14.9    0.00 
 242   17:25   0.08   97.4    28    4.3    65     7.7    0.00 
 242   17:30   0.07   97.0    28    4.1    98     7.7    0.00 
 242   17:35   0.07   96.4    28    5.0    98     9.3    0.00 
 242   17:40   0.07   96.0    29    5.2    13     9.9    0.00 
 242   17:45   0.07   95.9    30    5.3   110    11.6    0.00 
 242   17:50   0.08   95.5    30    3.2    74     6.5    0.00 
 242   17:55   0.08   95.2    31    4.1    98     6.5    0.00 
 242   18:00   0.10   95.4    31    5.2   324    10.5    0.00 
 242   18:05   0.11   95.4    31    3.2   342     7.7    0.00 
 242   18:10   0.13   96.0    30    2.5    22     6.0    0.00 
 242   18:15   0.12   95.9    31    1.2   354     5.4    0.00 
 242   18:20   0.10   96.2    32    3.4   147     7.7    0.00 
 242   18:25   0.06   96.1    34    4.3   166     8.8    0.00 
 242   18:30   0.02   91.8    40    6.7   186    18.3    0.00 
 242   18:35   0.01   84.8    47   10.9    45    22.2    0.02 
 242   18:40   0.01   81.9    58    7.0    99    14.4    0.11 
 242   18:45   0.00   77.0    73    8.8    53    18.3    0.17 
 242   18:50   0.00   73.4    73   14.9    88    25.6    0.11 
 242   18:55   0.00   74.0    71   12.3    87    25.6    0.00 
 242   19:00   0.00   75.1    65   20.6   108    31.1    0.01 
 242   19:05   0.00   72.4    70   25.8   111    37.3    0.00 
 242   19:10   0.00   70.7    74   27.3   109    38.4    0.00 
 242   19:15   0.00   69.9    83   33.3   116    46.2    0.00 
 242   19:20   0.00   71.8    80   31.2   116    40.1    0.02 
 242   19:25   0.00   73.4    76   30.8   117    41.2    0.00 
 242   19:30   0.00   72.8    77   32.5   116    42.9    0.00 
 242   19:35   0.00   72.7    75   29.3   115    41.2    0.00 
 242   19:40   0.00   74.2    70   28.0   113    47.4    0.00 
 242   19:45   0.00   76.0    65   29.6   114    36.7    0.00 
 242   19:50   0.00   75.7    64   22.8   114    30.6    0.00 
 242   19:55   0.00   76.1    60   21.4   116    33.4    0.00 
 242   20:00   0.00   76.0    59   17.5   111    23.9    0.00 
 242   20:05   0.00   75.9    59   14.8   116    18.9    0.00 
 242   20:10   0.00   75.9    60   10.3   112    15.5    0.00 
 242   20:15   0.00   75.0    63   10.7   111    13.8    0.00 
 242   20:20   0.00   74.7    64    9.4    96    14.9    0.00 
 242   20:25   0.00   75.3    62    8.1   104    12.7    0.00 
 242   20:30   0.00   76.0    60    8.9    98    12.7    0.00 
 242   20:35   0.00   77.1    56    7.3   121     9.9    0.00 
 242   20:40   0.00   76.6    58    6.5   135     9.9    0.00 
 242   20:45   0.00   78.9    47    5.8   131     8.8    0.00 
 242   20:50   0.00   79.1    49    6.4   105     9.3    0.00 
 242   20:55   0.00   79.7    47    7.6   100     9.9    0.00 
 242   21:00   0.00   81.2    43    9.6   106    12.7    0.00 
 242   21:05   0.00   82.4    40    8.4   109    12.1    0.00 
 242   21:10   0.00   82.0    42    6.2   103     9.9    0.00 
 242   21:15   0.00   82.2    42    6.8   109     9.3    0.00 
 242   21:20   0.00   82.3    42    6.1   110     9.9    0.00 
 242   21:25   0.00   82.2    42    6.7   110     9.3    0.00 
 242   21:30   0.00   82.4    41    7.7   107    10.5    0.00 
 242   21:35   0.00   82.4    41    6.5   113     9.3    0.00 
 242   21:40   0.00   82.3    41    6.4   109     9.3    0.00 
 242   21:45   0.00   81.8    42    6.0   117     8.2    0.00 
 242   21:50   0.00   81.9    42    7.2   125    10.5    0.00 
 242   21:55   0.00   81.6    42    8.3   118    10.5    0.00 
 242   22:00   0.00   82.5    40    8.2   112    11.0    0.00 
 242   22:05   0.00   82.6    40    8.4   119    11.6    0.00 
 242   22:10   0.00   82.0    41    9.1   119    12.1    0.00 
 242   22:15   0.00   81.8    42    8.0   115    10.5    0.00 
 242   22:20   0.00   80.8    46    8.0   120     9.9    0.00 
 242   22:25   0.00   80.2    47    8.0   121    11.0    0.00 
 242   22:30   0.00   81.0    43    6.2   119     8.8    0.00 
 242   22:35   0.00   82.3    40    4.7   149     7.1    0.00 
 242   22:40   0.00   83.1    39    5.1   147     7.7    0.00 
 242   22:45   0.00   82.8    40    5.1   139     7.7    0.00 
 242   22:50   0.00   83.2    39    4.2   159     6.0    0.00 
 242   22:55   0.00   83.8    38    4.5   170     6.5    0.00 
 242   23:00   0.00   83.8    38    4.9   175     7.1    0.00 
 242   23:05   0.00   83.7    38    4.3   175     5.4    0.00 
 242   23:10   0.00   83.8    38    4.5   187     6.0    0.00 
 242   23:15   0.00   84.0    38    4.4   177     6.0    0.00 
 242   23:20   0.00   83.4    39    4.3   154     5.4    0.00 
 242   23:25   0.00   83.3    40    4.6   155     6.5    0.00 
 242   23:30   0.00   83.5    40    5.2   152     8.2    0.00 
 242   23:35   0.00   83.3    40    5.2   147     7.7    0.00 
 242   23:40   0.00   82.8    42    4.5   142     7.1    0.00 
 242   23:45   0.00   82.8    42    5.2   147     8.2    0.00 
 242   23:50   0.00   82.8    43    4.8   144     7.7    0.00 
 242   23:55   0.00   82.8    44    3.9   142     7.1    0.00 
 243    0:00   0.00   82.9    44    3.4   151     5.4    0.00 
 243    0:05   0.00   83.2    43    3.4   164     5.4    0.00 
 243    0:10   0.00   83.6    42    3.7   189     6.0    0.00 
 243    0:15   0.00   83.9    42    3.9   177     5.4    0.00 
 243    0:20   0.00   83.2    44    3.6   166     6.0    0.00 
 243    0:25   0.00   83.4    42    3.7   193     5.4    0.00 
 243    0:30   0.00   83.9    42    4.0   193     6.0    0.00 
 243    0:35   0.00   83.9    41    4.2   199     6.0    0.00 
 243    0:40   0.00   83.7    42    4.2   197     7.1    0.00 
 243    0:45   0.00   83.6    42    5.0   212     7.7    0.00 
 243    0:50   0.00   83.4    43    4.1   228     7.7    0.00 
 243    0:55   0.00   83.3    43    4.4   236     7.7    0.00 
 243    1:00   0.00   83.0    44    2.6   326     7.1    0.00 
 243    1:05   0.00   82.0    47    3.8   323     7.1    0.00 
 243    1:10   0.00   81.8    47    4.7   335     7.7    0.00 
 243    1:15   0.00   81.6    47    3.1   324     6.5    0.00 
 243    1:20   0.00   82.5    45    2.5   291     6.0    0.00 
 243    1:25   0.00   82.3    47    0.7   334     3.2    0.00 
 243    1:30   0.00   81.3    47    2.6    13     4.3    0.00 
 243    1:35   0.00   81.0    47    1.7   358     4.3    0.00 
 243    1:40   0.00   82.1    45    0.2   299     2.1    0.00 
 243    1:45   0.00   82.1    46    1.7    54     3.8    0.00 
 243    1:50   0.00   80.7    49    3.7    33     6.0    0.00 
 243    1:55   0.00   79.2    52    2.3    21     5.4    0.00 
 243    2:00   0.00   79.5    49    3.2   346     5.4    0.00 
 243    2:05   0.00   79.4    49    2.9     4     5.4    0.00 
 243    2:10   0.00   79.1    50    3.5   344     5.4    0.00 
 243    2:15   0.00   79.0    50    4.0     3     6.0    0.00 
 243    2:20   0.00   79.0    49    3.9     8     6.5    0.00 
 243    2:25   0.00   78.7    51    6.2    28    10.5    0.00 
 243    2:30   0.00   77.5    55   10.1    47    12.7    0.00 
 243    2:35   0.00   77.5    56    8.9    58    12.1    0.00 
 243    2:40   0.00   77.4    58    6.9    70     8.2    0.00 
 243    2:45   0.00   77.8    56    6.2    78     8.8    0.00 
 243    2:50   0.00   78.0    56    3.6    92     6.0    0.00 
 243    2:55   0.00   78.2    55    2.9    93     4.3    0.00 
 243    3:00   0.00   78.6    54    3.3   106     6.0    0.00 
 243    3:05   0.00   77.6    59    4.8   123     6.5    0.00 
 243    3:10   0.00   77.5    59    5.2   104     6.5    0.00 
 243    3:15   0.00   77.7    59    4.2   110     5.4    0.00 
 243    3:20   0.00   78.1    57    0.8   209     3.8    0.00 
 243    3:25   0.00   78.2    60    2.1   229     4.3    0.00 
 243    3:30   0.00   77.5    62    2.5   206     4.3    0.00 
 243    3:35   0.00   77.5    61    3.8   173     6.0    0.00 
 243    3:40   0.00   77.2    62    5.5    99     7.7    0.00 
 243    3:45   0.00   77.5    60    6.8   109     8.8    0.00 
 243    3:50   0.00   78.1    58    7.3   106     9.9    0.00 
 243    3:55   0.00   77.9    60    7.2   102     9.3    0.00 
 243    4:00   0.00   77.5    62    5.7    93     7.7    0.00 
 243    4:05   0.00   77.1    63    4.0    98     6.0    0.00 
 243    4:10   0.00   76.9    64    3.8   102     6.0    0.00 
 243    4:15   0.00   77.2    61    4.9   104     8.8    0.00 
 243    4:20   0.00   77.8    58    5.7   110     7.7    0.00 
 243    4:25   0.00   77.8    58    7.6   109    11.0    0.00 
 243    4:30   0.00   78.1    56    7.5   115    11.6    0.00 
 243    4:35   0.00   78.1    57    7.5   115    11.0    0.00 
 243    4:40   0.00   78.1    57    7.7   100    12.1    0.00 
 243    4:45   0.00   76.8    62    7.8    97    12.1    0.01 
 243    4:50   0.00   76.4    63    8.7   106    12.7    0.00 
 243    4:55   0.00   76.9    61    8.4   105    11.6    0.00 
 243    5:00   0.00   77.3    60    9.5   107    12.1    0.00 
 243    5:05   0.00   76.8    62   10.5   109    13.3    0.00 
 243    5:10   0.00   76.1    65   11.4   110    13.8    0.00 
 243    5:15   0.00   76.0    65   12.1   114    15.5    0.00 
 243    5:20   0.00   75.8    65   11.3   112    16.0    0.00 
 243    5:25   0.00   76.0    65   10.8   115    13.8    0.00 
 243    5:30   0.00   76.0    65   11.2   110    18.3    0.00 
 243    5:35   0.00   75.6    66   11.5   111    17.2    0.00 
 243    5:40   0.00   75.2    67   11.4   108    16.6    0.00 
 243    5:45   0.00   75.0    67   13.6   110    18.9    0.00 
 243    5:50   0.00   74.7    69   13.9   108    21.6    0.00 
 243    5:55   0.00   74.7    69   12.6   110    19.4    0.00 
 243    6:00   0.00   74.2    72   12.2   107    17.2    0.00 
 243    6:05   0.00   74.1    72   12.6   110    18.3    0.00 
 243    6:10   0.00   74.1    73   12.6   109    19.4    0.00 
 243    6:15   0.00   74.1    73   12.1   108    17.2    0.00 
 243    6:20   0.00   74.3    73   12.5   112    18.9    0.00 
 243    6:25   0.00   74.3    73   13.2   110    18.3    0.00 
 243    6:30   0.00   74.5    73   13.0   100    24.4    0.00 

Return to Weather Top graphs page.


Western Regional Climate Center,wrcc@dri.edu